sensor_id;sensor_type;location;lat;lon;timestamp;pressure;altitude;pressure_sealevel;temperature;humidity
50087;BME280;35967;50.718;7.050;2022-08-07T00:04:26;101713.94;;;18.15;48.12
50087;BME280;35967;50.718;7.050;2022-08-07T00:14:28;101724.28;;;17.93;47.53
50087;BME280;35967;50.718;7.050;2022-08-07T00:24:33;101714.84;;;18.14;45.79
50087;BME280;35967;50.718;7.050;2022-08-07T00:34:36;101703.13;;;18.02;47.72
50087;BME280;35967;50.718;7.050;2022-08-07T00:44:38;101691.16;;;18.20;47.53
50087;BME280;35967;50.718;7.050;2022-08-07T00:54:42;101672.31;;;17.64;48.54
50087;BME280;35967;50.718;7.050;2022-08-07T01:04:44;101677.38;;;17.93;47.86
50087;BME280;35967;50.718;7.050;2022-08-07T01:14:46;101670.31;;;17.71;48.57
50087;BME280;35967;50.718;7.050;2022-08-07T01:24:58;101667.72;;;17.71;48.59
50087;BME280;35967;50.718;7.050;2022-08-07T01:35:03;101671.53;;;17.62;48.01
50087;BME280;35967;50.718;7.050;2022-08-07T01:45:11;101666.88;;;17.20;50.57
50087;BME280;35967;50.718;7.050;2022-08-07T01:55:43;101666.81;;;17.23;50.22
50087;BME280;35967;50.718;7.050;2022-08-07T02:05:54;101661.09;;;17.12;50.42
50087;BME280;35967;50.718;7.050;2022-08-07T02:16:07;101667.31;;;17.08;50.17
50087;BME280;35967;50.718;7.050;2022-08-07T02:26:15;101664.72;;;17.08;50.76
50087;BME280;35967;50.718;7.050;2022-08-07T02:36:37;101651.47;;;16.87;51.25
50087;BME280;35967;50.718;7.050;2022-08-07T02:46:46;101669.25;;;16.74;51.92
50087;BME280;35967;50.718;7.050;2022-08-07T02:56:55;101661.97;;;16.57;52.64
50087;BME280;35967;50.718;7.050;2022-08-07T03:07:00;101645.75;;;16.49;52.36
50087;BME280;35967;50.718;7.050;2022-08-07T03:17:20;101651.53;;;16.30;52.50
50087;BME280;35967;50.718;7.050;2022-08-07T03:27:25;101661.25;;;16.23;52.94
50087;BME280;35967;50.718;7.050;2022-08-07T03:37:48;101654.84;;;16.05;53.89
50087;BME280;35967;50.718;7.050;2022-08-07T03:47:58;101650.38;;;16.11;53.95
50087;BME280;35967;50.718;7.050;2022-08-07T03:58:01;101649.56;;;15.77;54.92
50087;BME280;35967;50.718;7.050;2022-08-07T04:08:23;101653.00;;;15.77;55.29
50087;BME280;35967;50.718;7.050;2022-08-07T04:18:25;101656.59;;;15.72;55.56
50087;BME280;35967;50.718;7.050;2022-08-07T04:28:48;101663.16;;;15.87;54.95
50087;BME280;35967;50.718;7.050;2022-08-07T04:38:52;101667.28;;;15.61;56.09
50087;BME280;35967;50.718;7.050;2022-08-07T05:00:23;101683.75;;;15.60;56.17
50087;BME280;35967;50.718;7.050;2022-08-07T05:10:20;101678.66;;;15.57;57.04
50087;BME280;35967;50.718;7.050;2022-08-07T05:20:31;101693.44;;;15.88;57.93
50087;BME280;35967;50.718;7.050;2022-08-07T05:30:35;101697.25;;;16.06;57.01
50087;BME280;35967;50.718;7.050;2022-08-07T05:40:40;101695.03;;;16.23;56.07
50087;BME280;35967;50.718;7.050;2022-08-07T05:50:56;101701.22;;;16.48;55.01
50087;BME280;35967;50.718;7.050;2022-08-07T06:01:00;101699.38;;;16.80;54.68
50087;BME280;35967;50.718;7.050;2022-08-07T06:11:06;101697.75;;;17.31;53.63
50087;BME280;35967;50.718;7.050;2022-08-07T06:21:09;101699.19;;;19.27;53.33
50087;BME280;35967;50.718;7.050;2022-08-07T06:31:32;101704.91;;;19.55;49.42
50087;BME280;35967;50.718;7.050;2022-08-07T06:42:02;101705.78;;;19.96;46.85
50087;BME280;35967;50.718;7.050;2022-08-07T06:52:34;101689.75;;;19.43;46.78
50087;BME280;35967;50.718;7.050;2022-08-07T07:02:42;101690.75;;;18.75;48.34
50087;BME280;35967;50.718;7.050;2022-08-07T07:13:13;101679.31;;;19.64;47.67
50087;BME280;35967;50.718;7.050;2022-08-07T07:23:37;101680.13;;;19.64;45.19
50087;BME280;35967;50.718;7.050;2022-08-07T07:34:04;101672.56;;;20.92;43.24
50087;BME280;35967;50.718;7.050;2022-08-07T07:44:11;101671.25;;;19.89;44.46
50087;BME280;35967;50.718;7.050;2022-08-07T07:54:27;101673.47;;;19.78;44.17
50087;BME280;35967;50.718;7.050;2022-08-07T08:04:29;101655.94;;;21.10;41.76
50087;BME280;35967;50.718;7.050;2022-08-07T08:14:34;101656.19;;;20.69;41.19
50087;BME280;35967;50.718;7.050;2022-08-07T08:24:41;101643.44;;;20.98;40.79
50087;BME280;35967;50.718;7.050;2022-08-07T08:35:23;101641.50;;;21.37;39.46
50087;BME280;35967;50.718;7.050;2022-08-07T08:45:45;101625.88;;;21.85;39.42
50087;BME280;35967;50.718;7.050;2022-08-07T08:56:05;101622.81;;;21.77;37.88
50087;BME280;35967;50.718;7.050;2022-08-07T09:06:19;101612.00;;;22.31;38.28
50087;BME280;35967;50.718;7.050;2022-08-07T09:26:54;101600.16;;;23.44;37.36
50087;BME280;35967;50.718;7.050;2022-08-07T09:37:03;101589.19;;;23.52;35.12
50087;BME280;35967;50.718;7.050;2022-08-07T09:58:13;101572.22;;;23.85;31.78
50087;BME280;35967;50.718;7.050;2022-08-07T10:40:18;101524.59;;;24.96;30.12
50087;BME280;35967;50.718;7.050;2022-08-07T10:50:35;101512.94;;;25.24;29.93
50087;BME280;35967;50.718;7.050;2022-08-07T11:11:45;101494.19;;;25.42;28.48
50087;BME280;35967;50.718;7.050;2022-08-07T11:22:09;101478.09;;;25.82;29.50
50087;BME280;35967;50.718;7.050;2022-08-07T11:32:42;101466.09;;;25.54;28.71
50087;BME280;35967;50.718;7.050;2022-08-07T11:42:58;101469.75;;;25.40;27.75
50087;BME280;35967;50.718;7.050;2022-08-07T11:53:26;101447.31;;;25.94;27.32
50087;BME280;35967;50.718;7.050;2022-08-07T12:13:57;101435.09;;;26.97;27.45
50087;BME280;35967;50.718;7.050;2022-08-07T12:24:07;101428.38;;;26.92;27.02
50087;BME280;35967;50.718;7.050;2022-08-07T12:34:33;101412.28;;;27.39;27.65
50087;BME280;35967;50.718;7.050;2022-08-07T12:44:39;101414.41;;;27.13;26.93
50087;BME280;35967;50.718;7.050;2022-08-07T12:55:06;101408.91;;;27.37;26.06
50087;BME280;35967;50.718;7.050;2022-08-07T13:05:40;101399.56;;;27.33;26.25
50087;BME280;35967;50.718;7.050;2022-08-07T13:16:16;101385.28;;;26.81;26.02
50087;BME280;35967;50.718;7.050;2022-08-07T13:26:30;101374.09;;;27.32;26.68
50087;BME280;35967;50.718;7.050;2022-08-07T13:36:49;101362.66;;;27.11;26.75
50087;BME280;35967;50.718;7.050;2022-08-07T13:46:57;101349.16;;;27.25;26.93
50087;BME280;35967;50.718;7.050;2022-08-07T13:57:00;101341.00;;;27.49;26.31
50087;BME280;35967;50.718;7.050;2022-08-07T14:07:10;101331.97;;;27.73;27.19
50087;BME280;35967;50.718;7.050;2022-08-07T14:17:13;101326.63;;;27.10;26.01
50087;BME280;35967;50.718;7.050;2022-08-07T14:27:40;101310.84;;;27.19;25.98
50087;BME280;35967;50.718;7.050;2022-08-07T14:38:04;101306.75;;;27.48;27.15
50087;BME280;35967;50.718;7.050;2022-08-07T14:48:08;101291.44;;;27.30;27.53
50087;BME280;35967;50.718;7.050;2022-08-07T14:58:24;101279.19;;;27.29;27.11
50087;BME280;35967;50.718;7.050;2022-08-07T15:08:32;101275.16;;;27.14;26.55
50087;BME280;35967;50.718;7.050;2022-08-07T15:18:58;101271.28;;;26.97;26.43
50087;BME280;35967;50.718;7.050;2022-08-07T15:29:05;101263.16;;;26.88;26.79
50087;BME280;35967;50.718;7.050;2022-08-07T15:39:28;101267.75;;;27.07;26.51
50087;BME280;35967;50.718;7.050;2022-08-07T15:49:51;101261.06;;;27.03;26.03
50087;BME280;35967;50.718;7.050;2022-08-07T16:00:07;101250.97;;;26.97;26.69
50087;BME280;35967;50.718;7.050;2022-08-07T16:10:31;101244.81;;;26.75;26.58
50087;BME280;35967;50.718;7.050;2022-08-07T16:20:58;101234.25;;;26.87;26.48
50087;BME280;35967;50.718;7.050;2022-08-07T16:31:54;101234.72;;;26.81;26.48
50087;BME280;35967;50.718;7.050;2022-08-07T16:42:31;101226.94;;;26.79;27.63
50087;BME280;35967;50.718;7.050;2022-08-07T16:53:05;101233.31;;;26.76;27.73
50087;BME280;35967;50.718;7.050;2022-08-07T17:04:09;101244.66;;;26.56;27.52
50087;BME280;35967;50.718;7.050;2022-08-07T17:14:22;101234.09;;;26.56;27.22
50087;BME280;35967;50.718;7.050;2022-08-07T17:34:34;101237.97;;;26.29;27.87
50087;BME280;35967;50.718;7.050;2022-08-07T17:45:03;101236.56;;;26.13;28.45
50087;BME280;35967;50.718;7.050;2022-08-07T17:55:36;101241.47;;;25.95;28.69
50087;BME280;35967;50.718;7.050;2022-08-07T18:06:04;101250.31;;;25.83;28.98
50087;BME280;35967;50.718;7.050;2022-08-07T18:27:41;101261.66;;;25.61;28.73
50087;BME280;35967;50.718;7.050;2022-08-07T18:48:45;101282.69;;;25.38;29.77
50087;BME280;35967;50.718;7.050;2022-08-07T19:09:43;101314.91;;;25.06;29.69
50087;BME280;35967;50.718;7.050;2022-08-07T19:20:15;101319.56;;;25.02;29.96
50087;BME280;35967;50.718;7.050;2022-08-07T19:30:32;101334.56;;;24.89;31.44
50087;BME280;35967;50.718;7.050;2022-08-07T19:40:59;101353.03;;;24.63;31.82
50087;BME280;35967;50.718;7.050;2022-08-07T19:51:05;101357.41;;;24.88;36.74
50087;BME280;35967;50.718;7.050;2022-08-07T20:01:21;101366.31;;;24.75;31.27
50087;BME280;35967;50.718;7.050;2022-08-07T20:11:52;101366.66;;;24.44;31.84
50087;BME280;35967;50.718;7.050;2022-08-07T20:22:18;101370.88;;;23.68;33.27
50087;BME280;35967;50.718;7.050;2022-08-07T20:32:36;101383.28;;;23.53;34.61
50087;BME280;35967;50.718;7.050;2022-08-07T20:42:43;101383.38;;;23.64;35.37
50087;BME280;35967;50.718;7.050;2022-08-07T20:52:47;101384.41;;;23.21;37.00
50087;BME280;35967;50.718;7.050;2022-08-07T21:02:55;101380.09;;;23.47;36.91
50087;BME280;35967;50.718;7.050;2022-08-07T21:13:17;101393.00;;;23.38;37.96
50087;BME280;35967;50.718;7.050;2022-08-07T21:23:36;101390.59;;;23.47;37.65
50087;BME280;35967;50.718;7.050;2022-08-07T21:34:23;101404.00;;;23.30;38.75
50087;BME280;35967;50.718;7.050;2022-08-07T21:44:42;101418.91;;;23.29;37.84
50087;BME280;35967;50.718;7.050;2022-08-07T22:05:42;101423.16;;;23.03;38.74
50087;BME280;35967;50.718;7.050;2022-08-07T22:15:56;101435.69;;;22.71;37.84
50087;BME280;35967;50.718;7.050;2022-08-07T22:26:23;101430.78;;;22.79;39.62
50087;BME280;35967;50.718;7.050;2022-08-07T22:57:44;101433.50;;;22.18;40.06
50087;BME280;35967;50.718;7.050;2022-08-07T23:29:39;101446.09;;;21.66;42.29
50087;BME280;35967;50.718;7.050;2022-08-07T23:40:13;101446.50;;;21.58;42.33
50087;BME280;35967;50.718;7.050;2022-08-07T23:50:53;101449.84;;;21.44;42.73
